createdAt,value
2016-12-27T00:00:02.255Z,5.17
2016-12-27T00:05:02.800Z,5.16
2016-12-27T00:10:02.257Z,5.17
2016-12-27T00:15:03.663Z,5.08
2016-12-27T00:20:02.906Z,5.03
2016-12-27T00:25:02.295Z,5.01
2016-12-27T00:30:02.801Z,4.77
2016-12-27T00:35:03.179Z,4.64
2016-12-27T00:40:02.649Z,4.67
2016-12-27T00:45:03.019Z,4.76
2016-12-27T00:50:02.383Z,4.77
2016-12-27T00:55:02.832Z,4.71
2016-12-27T01:00:02.208Z,4.61
2016-12-27T01:05:02.552Z,4.62
2016-12-27T01:10:03.073Z,4.64
2016-12-27T01:15:02.415Z,4.63
2016-12-27T01:20:02.854Z,4.63
2016-12-27T01:25:02.404Z,4.66
2016-12-27T01:30:02.807Z,4.65
2016-12-27T01:35:02.204Z,4.61
2016-12-27T01:40:02.570Z,4.59
2016-12-27T01:45:02.961Z,4.6
2016-12-27T01:50:02.338Z,4.67
2016-12-27T01:55:02.693Z,4.71
2016-12-27T02:00:03.052Z,4.72
2016-12-27T02:05:02.422Z,4.68
2016-12-27T02:10:02.797Z,4.67
2016-12-27T02:15:03.179Z,4.66
2016-12-27T02:20:02.682Z,4.69
2016-12-27T02:25:03.060Z,4.74
2016-12-27T02:30:02.429Z,4.74
2016-12-27T02:35:02.786Z,4.77
2016-12-27T02:40:03.185Z,4.8
2016-12-27T02:45:02.516Z,4.81
2016-12-27T02:50:02.894Z,4.78
2016-12-27T02:55:02.316Z,4.81
2016-12-27T03:00:02.694Z,4.89
2016-12-27T03:05:03.050Z,4.86
2016-12-27T03:10:02.432Z,4.84
2016-12-27T03:15:02.786Z,4.84
2016-12-27T03:20:02.260Z,4.9
2016-12-27T03:25:02.655Z,4.9
2016-12-27T03:30:03.009Z,4.92
2016-12-27T03:35:02.405Z,5.01
2016-12-27T03:40:02.852Z,4.98
2016-12-27T03:45:02.321Z,4.96
2016-12-27T03:50:02.732Z,4.96
2016-12-27T03:55:03.109Z,4.97
2016-12-27T04:00:02.471Z,4.96
2016-12-27T04:05:02.842Z,5
2016-12-27T04:10:02.267Z,5.04
2016-12-27T04:15:02.602Z,5.02
2016-12-27T04:20:03.067Z,5.07
2016-12-27T04:25:02.401Z,5.11
2016-12-27T04:30:02.769Z,5.1
2016-12-27T04:35:03.143Z,5.21
2016-12-27T04:40:02.559Z,5.26
2016-12-27T04:45:02.900Z,5.25
2016-12-27T04:50:02.309Z,5.21
2016-12-27T04:55:02.701Z,5.18
2016-12-27T05:00:03.128Z,5.2
2016-12-27T05:05:02.549Z,5.22
2016-12-27T05:10:02.939Z,5.23
2016-12-27T05:15:02.284Z,5.23
2016-12-27T05:20:02.756Z,5.26
2016-12-27T05:25:03.161Z,5.33
2016-12-27T05:30:02.528Z,5.35
2016-12-27T05:35:02.881Z,5.39
2016-12-27T05:40:02.266Z,5.42
2016-12-27T05:45:02.610Z,5.43
2016-12-27T05:50:03.064Z,5.42
2016-12-27T05:55:02.379Z,5.41
2016-12-27T06:00:02.808Z,5.38
2016-12-27T06:05:02.241Z,5.35
2016-12-27T06:10:02.743Z,5.36
2016-12-27T06:15:03.142Z,5.37
2016-12-27T06:20:02.594Z,5.38
2016-12-27T06:25:03.069Z,5.36
2016-12-27T06:30:02.491Z,5.38
2016-12-27T06:35:02.967Z,5.36
2016-12-27T06:40:02.363Z,5.36
2016-12-27T06:45:02.792Z,5.34
2016-12-27T06:50:02.208Z,5.36
2016-12-27T06:55:02.549Z,5.39
2016-12-27T07:00:02.946Z,5.48
2016-12-27T07:05:02.349Z,5.45
2016-12-27T07:10:02.743Z,5.47
2016-12-27T07:15:03.135Z,5.52
2016-12-27T07:20:02.538Z,5.52
2016-12-27T07:25:02.935Z,5.54
2016-12-27T07:30:02.321Z,5.7
2016-12-27T07:35:02.696Z,5.66
2016-12-27T07:40:03.093Z,5.7
2016-12-27T07:45:02.443Z,5.76
2016-12-27T07:50:02.851Z,5.75
2016-12-27T07:55:02.257Z,5.75
2016-12-27T08:00:02.642Z,5.79
2016-12-27T08:05:03.009Z,5.85
2016-12-27T08:10:02.355Z,5.93
2016-12-27T08:15:02.743Z,5.96
2016-12-27T08:20:02.250Z,5.98
2016-12-27T08:25:02.657Z,6.04
2016-12-27T08:30:03.045Z,6.06
2016-12-27T08:35:02.407Z,6.06
2016-12-27T08:40:02.759Z,6.08
2016-12-27T08:45:03.121Z,6.2
2016-12-27T08:50:02.461Z,6.3
2016-12-27T08:55:02.834Z,6.3
2016-12-27T09:00:02.274Z,6.33
2016-12-27T09:05:02.601Z,6.41
2016-12-27T09:10:02.956Z,6.45
2016-12-27T09:15:02.325Z,6.56
2016-12-27T09:20:02.752Z,6.61
2016-12-27T09:25:03.118Z,6.66
2016-12-27T09:30:02.485Z,6.71
2016-12-27T09:35:02.854Z,6.68
2016-12-27T09:40:02.246Z,6.66
2016-12-27T09:45:02.575Z,6.65
2016-12-27T09:50:02.923Z,6.66
2016-12-27T09:55:02.331Z,6.68
2016-12-27T10:00:02.740Z,6.69
2016-12-27T10:05:03.129Z,6.72
2016-12-27T10:10:02.519Z,6.71
2016-12-27T10:15:02.863Z,6.7
2016-12-27T10:20:02.363Z,6.7
2016-12-27T10:25:02.704Z,6.72
2016-12-27T10:30:03.052Z,6.75
2016-12-27T10:35:02.366Z,6.8
2016-12-27T10:40:02.733Z,6.87
2016-12-27T10:45:03.084Z,6.91
2016-12-27T10:50:02.487Z,6.93
2016-12-27T10:55:02.874Z,6.98
2016-12-27T11:00:02.833Z,7.03
2016-12-27T11:05:02.631Z,7.07
2016-12-27T11:10:03.142Z,7.03
2016-12-27T11:15:02.495Z,7.04
2016-12-27T11:20:02.953Z,7.04
2016-12-27T11:25:02.796Z,7.1
2016-12-27T11:30:02.550Z,7.13
2016-12-27T11:35:04.251Z,7.17
2016-12-27T11:40:02.565Z,7.19
2016-12-27T11:45:03.123Z,7.18
2016-12-27T11:50:02.495Z,7.17
2016-12-27T11:55:04.041Z,7.17
2016-12-27T12:00:03.089Z,7.16
2016-12-27T12:05:02.482Z,7.19
2016-12-27T12:10:02.885Z,7.2
2016-12-27T12:15:02.358Z,7.2
2016-12-27T12:20:02.822Z,7.18
2016-12-27T12:25:02.254Z,7.12
2016-12-27T12:30:03.608Z,7.04
2016-12-27T12:35:02.936Z,7.01
2016-12-27T12:40:02.646Z,7.03
2016-12-27T12:45:03.090Z,7.1
2016-12-27T12:50:02.521Z,7.16
2016-12-27T12:55:02.926Z,7.16
2016-12-27T13:00:02.277Z,7.18
2016-12-27T13:05:02.642Z,7.23
2016-12-27T13:10:03.028Z,7.19
2016-12-27T13:15:02.347Z,7.17
2016-12-27T13:20:02.797Z,7.14
2016-12-27T13:25:02.220Z,7.01
2016-12-27T13:30:02.591Z,6.87
2016-12-27T13:35:03.022Z,6.79
2016-12-27T13:40:02.415Z,6.74
2016-12-27T13:45:02.742Z,6.78
2016-12-27T13:50:03.120Z,6.87
2016-12-27T13:55:02.474Z,6.99
2016-12-27T14:00:02.893Z,7.15
2016-12-27T14:05:02.295Z,7.27
2016-12-27T14:10:02.647Z,7.43
2016-12-27T14:15:03.015Z,7.53
2016-12-27T14:20:02.494Z,7.58
2016-12-27T14:25:02.851Z,7.59
2016-12-27T14:30:02.249Z,7.61
2016-12-27T14:35:02.583Z,7.62
2016-12-27T14:40:04.197Z,7.65
2016-12-27T14:45:02.600Z,7.67
2016-12-27T14:50:03.293Z,7.63
2016-12-27T14:55:03.815Z,7.6
2016-12-27T15:00:02.930Z,7.59
2016-12-27T15:05:02.270Z,7.63
2016-12-27T15:10:02.640Z,7.65
2016-12-27T15:15:02.994Z,7.69
2016-12-27T15:20:02.466Z,7.68
2016-12-27T15:25:02.869Z,7.68
2016-12-27T15:30:02.249Z,7.64
2016-12-27T15:35:02.644Z,7.61
2016-12-27T15:40:03.034Z,7.58
2016-12-27T15:45:02.426Z,7.58
2016-12-27T15:50:02.920Z,7.56
2016-12-27T15:55:02.327Z,7.54
2016-12-27T16:00:02.712Z,7.55
2016-12-27T16:05:03.061Z,7.55
2016-12-27T16:10:02.417Z,7.56
2016-12-27T16:15:02.779Z,7.55
2016-12-27T16:20:02.226Z,7.56
2016-12-27T16:25:02.567Z,7.54
2016-12-27T16:30:02.961Z,7.53
2016-12-27T16:35:02.338Z,7.54
2016-12-27T16:40:02.703Z,7.52
2016-12-27T16:45:03.827Z,7.54
2016-12-27T16:50:02.833Z,7.55
2016-12-27T16:55:02.211Z,7.55
2016-12-27T17:00:02.581Z,7.54
2016-12-27T17:05:02.973Z,7.55
2016-12-27T17:10:03.065Z,7.55
2016-12-27T17:15:02.535Z,7.5
2016-12-27T17:20:02.970Z,7.49
2016-12-27T17:25:02.354Z,7.53
2016-12-27T17:30:02.738Z,7.52
2016-12-27T17:35:03.067Z,7.49
2016-12-27T17:40:02.428Z,7.46
2016-12-27T17:45:02.737Z,7.46
2016-12-27T17:50:03.211Z,7.4
2016-12-27T17:55:02.564Z,7.37
2016-12-27T18:00:03.020Z,7.34
2016-12-27T18:05:03.213Z,7.34
2016-12-27T18:10:02.721Z,7.34
2016-12-27T18:15:03.178Z,7.33
2016-12-27T18:20:05.457Z,7.33
2016-12-27T18:25:02.849Z,7.33
2016-12-27T18:30:02.204Z,7.32
2016-12-27T18:35:03.888Z,7.3
2016-12-27T18:40:02.330Z,7.29
2016-12-27T18:45:02.673Z,7.27
2016-12-27T18:50:03.072Z,7.24
2016-12-27T18:55:02.569Z,7.2
2016-12-27T19:00:04.211Z,7.19
2016-12-27T19:05:03.341Z,7.14
2016-12-27T19:10:02.693Z,7.11
2016-12-27T19:15:04.380Z,7.13
2016-12-27T19:20:05.410Z,7.16
2016-12-27T19:25:05.929Z,7.18
2016-12-27T19:30:04.398Z,7.17
2016-12-27T19:35:04.765Z,7.18
2016-12-27T19:40:05.878Z,7.19
2016-12-27T19:45:02.571Z,7.2
2016-12-27T19:50:03.164Z,7.16
2016-12-27T19:55:03.914Z,7.11
2016-12-27T20:00:05.442Z,7.04
2016-12-27T20:05:02.980Z,7.01
2016-12-27T20:10:02.367Z,7
2016-12-27T20:15:02.790Z,7
2016-12-27T20:20:02.250Z,7.01
2016-12-27T20:25:03.356Z,7.01
2016-12-27T20:30:03.578Z,7.02
2016-12-27T20:35:05.754Z,7
2016-12-27T20:40:06.350Z,6.98
2016-12-27T20:45:03.378Z,6.95
2016-12-27T20:50:02.807Z,6.95
2016-12-27T20:55:05.739Z,6.9
2016-12-27T21:00:03.051Z,6.91
2016-12-27T21:05:02.667Z,6.91
2016-12-27T21:10:03.037Z,6.89
2016-12-27T21:15:03.691Z,6.88
2016-12-27T21:20:03.103Z,6.84
2016-12-27T21:25:02.441Z,6.82
2016-12-27T21:30:02.805Z,6.76
2016-12-27T21:35:02.263Z,6.75
2016-12-27T21:40:02.644Z,6.76
2016-12-27T21:45:03.043Z,6.73
2016-12-27T21:50:02.511Z,6.72
2016-12-27T21:55:02.852Z,6.72
2016-12-27T22:00:02.248Z,6.7
2016-12-27T22:05:02.578Z,6.7
2016-12-27T22:10:04.405Z,6.7
2016-12-27T22:15:02.751Z,6.67
2016-12-27T22:20:02.784Z,6.64
2016-12-27T22:25:02.379Z,6.6
2016-12-27T22:30:03.548Z,6.58
2016-12-27T22:35:02.877Z,6.57
2016-12-27T22:40:02.324Z,6.54
2016-12-27T22:45:02.658Z,6.52
2016-12-27T22:50:03.005Z,6.52
2016-12-27T22:55:02.328Z,6.51
2016-12-27T23:00:02.816Z,6.48
2016-12-27T23:05:02.188Z,6.49
2016-12-27T23:10:02.525Z,6.44
2016-12-27T23:15:02.853Z,6.41
2016-12-27T23:20:02.291Z,6.41
2016-12-27T23:25:02.609Z,6.39
2016-12-27T23:30:02.965Z,6.38
2016-12-27T23:35:02.403Z,6.35
2016-12-27T23:40:02.768Z,6.31
2016-12-27T23:45:03.074Z,6.27
2016-12-27T23:50:02.548Z,6.23
2016-12-27T23:55:02.872Z,6.22
